• Join FlightAware (Why Join?)
  • Login
  • US Flag 
08:33PM EST


 

Airport Tracker/Info


-or-


 

Live Flight TrackerFlight Track Log ✈ N53NW ✈ 07-Jul-2013 ✈ KSSI - KHPN

Flight Track Log - Related Links

Times and Time Zones

All times are in EDT time to prevent confusion due to time zone crossing. See the N53NW flight status page for this flight to view local times or setup timezone preferences in your user account.

Time Position Orientation Groundspeed Altitude Reporting Facility
EDT Latitude Longitude Course Direction KTS MPH feet Rate Location/Type
05:25PM 31.3022 -81.4336 10° North 306 352 4,700  Level Jacksonville Center
05:26PM 31.3792 -81.4131 13° North 269 310 7,200 2,460 Climbing Jacksonville Center
05:27PM 31.4561 -81.3925 13° North 275 316 9,700 2,460 Climbing Jacksonville Center
05:28PM 31.5311 -81.3692 15° North 281 323 12,200 2,160 Climbing Jacksonville Center
05:29PM 31.6435 -81.2813 10° North  Level FlightAware Approximate
05:29PM 31.6058 -81.3483 13° North 286 329 14,100  Level Jacksonville Center
05:30PM 31.7424 -81.2615 10° North  Level FlightAware Approximate
05:30PM 31.6956 -81.3250 12° North 298 343 16,300  Level Jacksonville Center
05:31PM 31.7808 -81.3017 13° North 298 343 17,900 1,500 Climbing Jacksonville Center
05:32PM 31.8578 -81.2806 13° North 303 349 19,300 1,440 Climbing Jacksonville Center
05:33PM 31.9575 -81.2544 13° North 326 375 20,800 1,500 Climbing Jacksonville Center
05:34PM 32.0492 -81.2283 14° North 333 383 22,300 1,500 Climbing Jacksonville Center
05:35PM 32.1406 -81.1972 16° North 333 383 23,800 1,500 Climbing Jacksonville Center
05:36PM 32.2019 -81.1150 49° Northeast 324 373 25,400 1,500 Climbing Jacksonville Center
05:37PM 32.2553 -81.0378 51° Northeast 330 380 26,800 1,500 Climbing Jacksonville Center
05:38PM 32.3269 -80.9478 47° Northeast 336 387 28,500 1,500 Climbing Jacksonville Center
05:39PM 32.3864 -80.8753 46° Northeast 336 387 29,900 1,440 Climbing Jacksonville Center
05:40PM 32.4600 -80.7850 46° Northeast 336 387 31,400 1,500 Climbing Jacksonville Center
05:41PM 32.5297 -80.7069 43° Northeast 341 392 32,900 1,200 Climbing Jacksonville Center
05:42PM 32.5953 -80.6289 45° Northeast 341 392 33,900 1,020 Climbing Jacksonville Center
05:43PM 32.6625 -80.5483 45° Northeast 336 387 35,000 540 Climbing Jacksonville Center
05:44PM 32.7319 -80.4675 44° Northeast 336 387 35,000  Level Jacksonville Center
05:45PM 32.8056 -80.3817 44° Northeast 348 400 35,000 120 Level Jacksonville Center
05:46PM 32.8808 -80.2903 46° Northeast 360 414 35,300 660 Climbing Jacksonville Center
05:47PM 32.9625 -80.2014 42° Northeast 378 435 36,400 1,020 Climbing Jacksonville Center
05:48PM 33.0336 -80.1175 45° Northeast 374 430 37,400 900 Climbing Jacksonville Center
05:49PM 33.0986 -80.0311 48° Northeast 372 428 38,200 780 Climbing Jacksonville Center
05:50PM 33.1678 -79.9544 43° Northeast 357 411 39,000 360 Climbing Jacksonville Center
05:51PM 33.2408 -79.8703 44° Northeast 352 405 39,000  Level Jacksonville Center
05:52PM 33.3158 -79.7781 46° Northeast 358 412 39,000  Level Jacksonville Center
05:53PM 33.3928 -79.6858 45° Northeast 378 435 39,000  Level Jacksonville Center
05:54PM 33.4739 -79.5908 44° Northeast 391 450 39,000  Level Jacksonville Center
05:55PM 33.5508 -79.4958 46° Northeast 396 456 39,000  Level Jacksonville Center
05:56PM 33.6294 -79.4006 45° Northeast 396 456 39,000  Level Jacksonville Center
05:57PM 33.7083 -79.3050 45° Northeast 396 456 39,000  Level Jacksonville Center
05:58PM 33.7889 -79.2117 44° Northeast 389 448 39,000  Level Jacksonville Center
05:59PM 33.8694 -79.1133 45° Northeast 389 448 39,000  Level Jacksonville Center
06:01PM 34.0122 -78.9464 44° Northeast 400 460 39,000  Level Washington Center
06:02PM 34.1000 -78.8622 38° Northeast 390 449 39,000  Level Washington Center
06:03PM 34.1839 -78.7725 41° Northeast 390 449 39,000  Level Washington Center
06:04PM 34.2717 -78.6881 38° Northeast 395 455 39,000  Level Washington Center
06:05PM 34.3572 -78.6031 39° Northeast 395 455 39,000  Level Washington Center
06:06PM 34.4428 -78.5158 40° Northeast 395 455 39,000  Level Washington Center
06:07PM 34.5325 -78.4281 39° Northeast 400 460 39,000  Level Washington Center
06:08PM 34.6161 -78.3403 41° Northeast 400 460 39,000  Level Washington Center
06:09PM 34.7056 -78.2547 38° Northeast 400 460 39,000  Level Washington Center
06:10PM 34.7889 -78.1639 42° Northeast 405 466 39,000  Level Washington Center
06:11PM 34.8722 -78.0706 43° Northeast 400 460 39,000  Level Washington Center
06:12PM 34.9575 -77.9844 40° Northeast 395 455 39,000 300 Level Washington Center
06:13PM 35.0508 -77.9033 35° Northeast 395 455 39,600 480 Climbing Washington Center
06:14PM 35.1419 -77.8322 33° Northeast 395 455 40,000 240 Climbing Washington Center
06:15PM 35.2350 -77.7586 33° Northeast 395 455 40,200 480 Climbing Washington Center
06:16PM 35.3303 -77.6847 32° Northeast 395 455 41,000 360 Climbing Washington Center
06:17PM 35.4233 -77.6158 31° Northeast 395 455 41,000  Level Washington Center
06:18PM 35.5183 -77.5392 33° Northeast 395 455 41,000  Level Washington Center
06:19PM 35.6114 -77.4647 33° Northeast 395 455 41,000  Level Washington Center
06:20PM 35.7044 -77.3928 32° Northeast 395 455 41,000  Level Washington Center
06:21PM 35.8014 -77.3156 33° Northeast 400 460 41,000  Level Washington Center
06:22PM 35.8942 -77.2458 31° Northeast 394 453 41,000  Level Washington Center
06:23PM 35.9892 -77.1708 33° Northeast 394 453 41,000  Level Washington Center
06:24PM 36.0736 -77.0953 36° Northeast 387 445 41,000  Level Washington Center
06:25PM 36.1683 -77.0225 32° Northeast 387 445 41,000  Level Washington Center
06:26PM 36.2611 -76.9494 32° Northeast 393 452 41,000  Level Washington Center
06:27PM 36.3558 -76.8764 32° Northeast 393 452 41,000  Level Washington Center
06:28PM 36.4483 -76.8003 33° Northeast 393 452 41,000  Level Washington Center
06:29PM 36.5239 -76.7394 33° Northeast 393 452 41,000  Level Washington Center
06:30PM 36.6353 -76.6506 33° Northeast 393 452 41,000  Level Washington Center
06:31PM 36.7342 -76.5639 35° Northeast 393 452 41,000  Level Washington Center
06:32PM 36.8267 -76.4872 34° Northeast 398 458 41,000  Level Washington Center
06:33PM 36.9189 -76.4103 34° Northeast 398 458 41,000  Level Washington Center
06:34PM 37.0111 -76.3358 33° Northeast 398 458 41,000  Level Washington Center
06:35PM 37.1056 -76.2586 33° Northeast 398 458 41,000  Level Washington Center
06:36PM 37.1978 -76.1811 34° Northeast 393 452 41,000  Level Washington Center
06:37PM 37.3003 -76.1089 29° Northeast 399 459 41,000  Level Washington Center
06:38PM 37.3922 -76.0311 34° Northeast 404 465 41,000  Level Washington Center
06:39PM 37.4886 -75.9503 34° Northeast 404 465 41,000  Level Washington Center
06:40PM 37.5806 -75.8747 33° Northeast 404 465 41,000  Level Washington Center
06:41PM 37.6744 -75.7911 35° Northeast 404 465 41,000  Level Washington Center
06:42PM 37.7706 -75.7128 33° Northeast 404 465 41,000  Level Washington Center
06:43PM 37.8644 -75.6311 34° Northeast 404 465 41,000  Level Washington Center
06:44PM 37.9583 -75.5522 34° Northeast 404 465 41,000  Level Washington Center
06:45PM 38.0542 -75.4731 33° Northeast 404 465 41,000  Level Washington Center
06:46PM 38.1542 -75.4094 27° Northeast 404 465 41,000  Level Washington Center
06:47PM 38.2542 -75.3431 28° Northeast 404 465 41,000 -360 Level Washington Center
06:48PM 38.3500 -75.2767 29° Northeast 394 453 40,300 -960 Descending Washington Center
06:49PM 38.4497 -75.2153 26° Northeast 389 448 39,100 -1,200 Descending Washington Center
06:50PM 38.5517 -75.1511 26° Northeast 389 448 37,900 -1,080 Descending Washington Center
06:51PM 38.6536 -75.0867 26° Northeast 395 455 37,000 -480 Descending Washington Center
06:52PM 38.7556 -75.0167 28° Northeast 400 460 37,000 -240 Level Washington Center
06:53PM 38.8594 -74.9544 25° Northeast 405 466 36,600 -1,080 Descending Washington Center
06:54PM 38.9633 -74.8869 27° Northeast 405 466 34,900 -1,680 Descending Washington Center
06:55PM 39.0692 -74.8189 27° Northeast 405 466 33,300 -1,620 Descending Washington Center
06:56PM 39.1622 -74.7322 36° Northeast 405 466 31,700 -1,620 Descending Washington Center
06:58PM 39.3250 -74.5658 38° Northeast 408 470 28,800 -1,620 Descending New York Center
06:59PM 39.4200 -74.4661 39° Northeast 421 484 27,200 -1,680 Descending New York Center
07:00PM 39.5214 -74.3556 40° Northeast 426 490 25,400 -1,620 Descending New York Center
07:01PM 39.6031 -74.2681 40° Northeast 426 490 24,000 -1,260 Descending New York Center
07:02PM 39.6933 -74.1756 38° Northeast 421 484 22,900 -1,380 Descending New York Center
07:03PM 39.7794 -74.0825 40° Northeast 410 472 21,400 -1,020 Descending New York Center
07:04PM 39.8717 -73.9950 36° Northeast 405 466 21,000 -240 Descending New York Center
07:05PM 39.9614 -73.9125 35° Northeast 400 460 21,000  Level New York Center
07:06PM 40.0528 -73.8406 31° Northeast 395 455 21,000  Level New York Center
07:07PM 40.1328 -73.8903 335° Northwest 321 369 21,000  Level New York Center
07:08PM 40.0869 -73.9722 234° Southwest 150 173 21,000  Level New York Center
07:09PM 40.0064 -74.0147 202° Southwest 196 226 21,000 -360 Level New York Center
07:10PM 39.9275 -74.0083 176° South 243 280 20,300 -1,020 Descending New York Center
07:11PM 39.9375 -73.8681 85° East 216 249 19,000 -1,200 Descending New York Center
07:12PM 40.0128 -73.7847 40° Northeast 230 265 18,000 -960 Descending New York Center
07:13PM 40.0894 -73.7147 35° Northeast 325 374 17,200 -540 Descending New York Center
07:14PM 40.1811 -73.6289 36° Northeast 368 423 17,000 -120 Descending New York Center
07:16PM 40.3114 -73.5122 34° Northeast 372 428 16,900 -60 Descending Boston Center
07:17PM 40.4183 -73.4406 27° Northeast 367 422 16,900  Level Boston Center
07:18PM 40.5144 -73.4064 15° North 356 410 16,900  Level Boston Center
07:19PM 40.6128 -73.3694 16° North 356 410 16,900 -780 Level Boston Center
07:20PM 40.7500 -73.3167 16° North 335 386 15,000 -840 Descending New York TRACON
07:21PM 40.8167 -73.2500 37° Northeast 333 383 15,000 -960 Level New York TRACON
07:22PM 40.8667 -73.1333 60° Northeast 372 428 13,100 -1,980 Descending New York TRACON
07:23PM 40.9167 -73.0333 56° Northeast 316 364 11,100 -2,040 Descending New York TRACON
07:24PM 41.0000 -73.0167 North 294 338 9,100 -2,100 Descending New York TRACON
07:25PM 41.0500 -73.0833 315° West 272 313 7,000 -2,100 Descending New York TRACON
07:26PM 41.0667 -73.1667 285° West 251 289 4,900 -1,500 Descending New York TRACON
07:27PM 41.1000 -73.2500 298° West 238 274 4,000 -480 Descending New York TRACON
07:28PM 41.1333 -73.3333 298° West 236 272 4,000  Level New York TRACON
07:29PM 41.1500 -73.4167 285° West 233 268 4,000  Level New York TRACON
07:30PM 41.1833 -73.5000 298° West 236 272 4,000  Level New York TRACON
07:31PM 41.2000 -73.5667 288° West 237 273 4,000 -600 Level New York TRACON
07:32PM 41.2167 -73.6500 285° West 231 266 2,900 -1,020 Descending New York TRACON
07:33PM 41.1833 -73.7333 242° Southwest 202 232 2,000 -480 Descending New York TRACON
07:34PM 41.1500 -73.7667 217° Southwest 173 199 2,000 -360 Level New York TRACON
07:35PM 41.1167 -73.7500 159° South 140 161 1,300 -720 Descending New York TRACON